Terminal Aerodrome Forecast
Issued by NWS Corpus Christi, TX

Home | Current Version | Previous Version | Text Only | Print | Product List | Glossary On
Versions: 1 2 3 4 5 6 7 8 9 10 11 12
000
FTUS44 KCRP 270523
TAFVCT
TAF
KVCT 270523Z 2706/2806 16004KT P6SM VCSH SCT025 BKN060
     FM271300 19008KT P6SM VCTS SCT025CB BKN050
     FM272100 16015KT P6SM OVC050
     FM280200 14008KT P6SM BKN035=

USA.gov is the U.S. government's official web portal to all federal, state and local government web resources and services.